sensor_id;sensor_type;location;lat;lon;timestamp;pressure;altitude;pressure_sealevel;temperature;humidity
64388;BME280;50709;52.648;4.764;2022-12-17T00:01:16;102314.03;;;2.04;78.58
64388;BME280;50709;52.648;4.764;2022-12-17T00:04:00;102311.63;;;1.79;77.46
64388;BME280;50709;52.648;4.764;2022-12-17T00:06:44;102306.47;;;2.07;79.20
64388;BME280;50709;52.648;4.764;2022-12-17T00:09:28;102312.72;;;1.41;75.22
64388;BME280;50709;52.648;4.764;2022-12-17T00:12:11;102304.09;;;2.25;80.12
64388;BME280;50709;52.648;4.764;2022-12-17T00:14:55;102261.28;;;1.84;78.89
64388;BME280;50709;52.648;4.764;2022-12-17T00:17:39;102307.25;;;2.06;79.66
64388;BME280;50709;52.648;4.764;2022-12-17T00:20:23;102308.34;;;1.40;77.91
64388;BME280;50709;52.648;4.764;2022-12-17T00:23:07;102306.53;;;1.94;78.49
64388;BME280;50709;52.648;4.764;2022-12-17T00:25:51;102297.00;;;2.36;79.82
64388;BME280;50709;52.648;4.764;2022-12-17T00:28:36;102306.75;;;1.83;80.29
64388;BME280;50709;52.648;4.764;2022-12-17T00:31:20;102294.78;;;1.84;81.44
64388;BME280;50709;52.648;4.764;2022-12-17T00:34:04;102309.03;;;1.37;76.56
64388;BME280;50709;52.648;4.764;2022-12-17T00:36:47;102300.72;;;1.41;78.93
64388;BME280;50709;52.648;4.764;2022-12-17T00:39:31;102309.81;;;1.49;77.46
64388;BME280;50709;52.648;4.764;2022-12-17T00:42:15;102304.50;;;1.20;78.42
64388;BME280;50709;52.648;4.764;2022-12-17T00:44:59;102305.34;;;1.47;78.77
64388;BME280;50709;52.648;4.764;2022-12-17T00:47:42;102308.97;;;1.09;78.96
64388;BME280;50709;52.648;4.764;2022-12-17T00:50:26;102306.38;;;0.82;78.79
64388;BME280;50709;52.648;4.764;2022-12-17T00:53:10;102299.31;;;1.46;80.30
64388;BME280;50709;52.648;4.764;2022-12-17T00:55:54;102309.91;;;1.38;79.08
64388;BME280;50709;52.648;4.764;2022-12-17T00:58:37;102297.75;;;1.77;79.27
64388;BME280;50709;52.648;4.764;2022-12-17T01:01:21;102305.88;;;1.28;78.27
64388;BME280;50709;52.648;4.764;2022-12-17T01:04:25;102304.22;;;1.02;80.00
64388;BME280;50709;52.648;4.764;2022-12-17T01:07:09;102303.59;;;1.46;78.94
64388;BME280;50709;52.648;4.764;2022-12-17T01:09:53;102298.84;;;0.58;77.09
64388;BME280;50709;52.648;4.764;2022-12-17T01:12:37;102299.34;;;1.20;77.46
64388;BME280;50709;52.648;4.764;2022-12-17T01:15:20;102303.63;;;0.92;80.62
64388;BME280;50709;52.648;4.764;2022-12-17T01:18:05;102307.91;;;1.60;81.45
64388;BME280;50709;52.648;4.764;2022-12-17T01:20:54;102303.13;;;0.84;79.81
64388;BME280;50709;52.648;4.764;2022-12-17T01:23:38;102293.91;;;0.61;80.34
64388;BME280;50709;52.648;4.764;2022-12-17T01:26:22;102305.00;;;1.00;80.56
64388;BME280;50709;52.648;4.764;2022-12-17T01:29:06;102313.50;;;1.40;80.82
64388;BME280;50709;52.648;4.764;2022-12-17T01:31:49;102316.41;;;1.59;80.73
64388;BME280;50709;52.648;4.764;2022-12-17T01:34:33;102318.75;;;1.01;79.08
64388;BME280;50709;52.648;4.764;2022-12-17T01:37:18;102323.38;;;1.47;79.18
64388;BME280;50709;52.648;4.764;2022-12-17T01:40:01;102321.53;;;1.73;79.98
64388;BME280;50709;52.648;4.764;2022-12-17T01:42:45;102322.97;;;1.96;80.03
64388;BME280;50709;52.648;4.764;2022-12-17T01:45:35;102318.22;;;1.89;80.14
64388;BME280;50709;52.648;4.764;2022-12-17T01:48:20;102330.66;;;1.81;79.57
64388;BME280;50709;52.648;4.764;2022-12-17T01:51:06;102336.38;;;1.77;79.66
64388;BME280;50709;52.648;4.764;2022-12-17T01:53:51;102332.97;;;1.91;79.34
64388;BME280;50709;52.648;4.764;2022-12-17T01:56:36;102333.59;;;1.87;78.86
64388;BME280;50709;52.648;4.764;2022-12-17T01:59:24;102336.47;;;1.50;79.15
64388;BME280;50709;52.648;4.764;2022-12-17T02:02:09;102337.59;;;1.68;80.00
64388;BME280;50709;52.648;4.764;2022-12-17T02:04:53;102341.81;;;1.95;80.39
64388;BME280;50709;52.648;4.764;2022-12-17T02:13:29;102354.97;;;1.44;79.00
64388;BME280;50709;52.648;4.764;2022-12-17T02:19:01;102357.75;;;0.94;79.58
64388;BME280;50709;52.648;4.764;2022-12-17T02:21:49;102362.69;;;1.58;81.23
64388;BME280;50709;52.648;4.764;2022-12-17T02:27:24;102354.22;;;1.87;81.76
64388;BME280;50709;52.648;4.764;2022-12-17T02:30:08;102353.25;;;1.85;80.25
64388;BME280;50709;52.648;4.764;2022-12-17T02:32:52;102354.50;;;1.50;79.13
64388;BME280;50709;52.648;4.764;2022-12-17T02:35:39;102358.44;;;1.45;78.88
64388;BME280;50709;52.648;4.764;2022-12-17T02:38:24;102370.50;;;1.59;80.42
64388;BME280;50709;52.648;4.764;2022-12-17T02:41:31;102360.03;;;1.29;79.36
64388;BME280;50709;52.648;4.764;2022-12-17T02:44:13;102362.00;;;1.33;80.41
64388;BME280;50709;52.648;4.764;2022-12-17T02:46:58;102362.22;;;1.23;80.05
64388;BME280;50709;52.648;4.764;2022-12-17T02:49:43;102363.41;;;1.28;81.16
64388;BME280;50709;52.648;4.764;2022-12-17T02:52:27;102366.25;;;0.93;80.43
64388;BME280;50709;52.648;4.764;2022-12-17T02:55:11;102355.84;;;0.78;78.84
64388;BME280;50709;52.648;4.764;2022-12-17T02:57:55;102363.75;;;0.42;80.12
64388;BME280;50709;52.648;4.764;2022-12-17T03:00:38;102356.97;;;1.08;80.04
64388;BME280;50709;52.648;4.764;2022-12-17T03:03:22;102355.25;;;0.95;79.90
64388;BME280;50709;52.648;4.764;2022-12-17T03:06:06;102355.09;;;1.06;80.35
64388;BME280;50709;52.648;4.764;2022-12-17T03:08:50;102352.00;;;1.51;81.17
64388;BME280;50709;52.648;4.764;2022-12-17T03:11:34;102351.72;;;1.33;80.88
64388;BME280;50709;52.648;4.764;2022-12-17T03:14:18;102367.66;;;1.41;79.90
64388;BME280;50709;52.648;4.764;2022-12-17T03:17:02;102364.19;;;1.00;79.39
64388;BME280;50709;52.648;4.764;2022-12-17T03:19:46;102365.59;;;1.36;81.16
64388;BME280;50709;52.648;4.764;2022-12-17T03:22:30;102359.44;;;0.93;80.76
64388;BME280;50709;52.648;4.764;2022-12-17T03:25:14;102369.25;;;1.26;81.28
64388;BME280;50709;52.648;4.764;2022-12-17T03:28:07;102365.47;;;0.94;80.41
64388;BME280;50709;52.648;4.764;2022-12-17T03:30:52;102371.91;;;1.00;79.37
64388;BME280;50709;52.648;4.764;2022-12-17T03:33:35;102371.94;;;1.27;80.48
64388;BME280;50709;52.648;4.764;2022-12-17T03:36:20;102377.63;;;0.96;77.81
64388;BME280;50709;52.648;4.764;2022-12-17T03:39:03;102374.19;;;1.49;80.52
64388;BME280;50709;52.648;4.764;2022-12-17T03:41:47;102384.09;;;1.43;81.73
64388;BME280;50709;52.648;4.764;2022-12-17T03:44:31;102373.41;;;1.50;79.54
64388;BME280;50709;52.648;4.764;2022-12-17T03:47:15;102383.88;;;1.67;80.38
64388;BME280;50709;52.648;4.764;2022-12-17T03:49:59;102378.13;;;1.31;77.93
64388;BME280;50709;52.648;4.764;2022-12-17T03:52:43;102385.28;;;1.22;77.81
64388;BME280;50709;52.648;4.764;2022-12-17T03:55:27;102380.44;;;1.40;81.20
64388;BME280;50709;52.648;4.764;2022-12-17T03:58:11;102375.88;;;1.22;80.36
64388;BME280;50709;52.648;4.764;2022-12-17T04:00:55;102368.84;;;1.06;78.79
64388;BME280;50709;52.648;4.764;2022-12-17T04:03:39;102367.94;;;0.92;80.19
64388;BME280;50709;52.648;4.764;2022-12-17T04:06:24;102367.59;;;1.81;80.31
64388;BME280;50709;52.648;4.764;2022-12-17T04:09:08;102371.69;;;1.51;80.01
64388;BME280;50709;52.648;4.764;2022-12-17T04:11:52;102372.88;;;1.16;79.73
64388;BME280;50709;52.648;4.764;2022-12-17T04:14:36;102365.75;;;1.12;78.10
64388;BME280;50709;52.648;4.764;2022-12-17T04:17:20;102372.88;;;1.03;78.95
64388;BME280;50709;52.648;4.764;2022-12-17T04:20:04;102378.63;;;1.39;78.48
64388;BME280;50709;52.648;4.764;2022-12-17T04:22:48;102385.56;;;1.53;80.14
64388;BME280;50709;52.648;4.764;2022-12-17T04:25:31;102379.03;;;1.05;77.91
64388;BME280;50709;52.648;4.764;2022-12-17T04:28:16;102392.19;;;1.63;79.48
64388;BME280;50709;52.648;4.764;2022-12-17T04:31:00;102398.63;;;2.11;78.60
64388;BME280;50709;52.648;4.764;2022-12-17T04:33:44;102390.72;;;1.26;79.30
64388;BME280;50709;52.648;4.764;2022-12-17T04:36:28;102384.09;;;1.16;81.14
64388;BME280;50709;52.648;4.764;2022-12-17T04:39:11;102378.25;;;1.32;81.24
64388;BME280;50709;52.648;4.764;2022-12-17T04:41:55;102391.81;;;1.30;80.58
64388;BME280;50709;52.648;4.764;2022-12-17T04:44:44;102388.56;;;1.32;79.78
64388;BME280;50709;52.648;4.764;2022-12-17T04:47:28;102389.63;;;1.63;80.83
64388;BME280;50709;52.648;4.764;2022-12-17T04:50:12;102394.19;;;1.40;77.74
64388;BME280;50709;52.648;4.764;2022-12-17T04:53:02;102400.31;;;1.82;79.46
64388;BME280;50709;52.648;4.764;2022-12-17T04:55:47;102401.88;;;1.80;79.19
64388;BME280;50709;52.648;4.764;2022-12-17T04:58:31;102399.91;;;1.63;80.46
64388;BME280;50709;52.648;4.764;2022-12-17T05:01:14;102399.63;;;1.85;78.67
64388;BME280;50709;52.648;4.764;2022-12-17T05:03:58;102405.66;;;1.85;79.45
64388;BME280;50709;52.648;4.764;2022-12-17T05:06:42;102393.88;;;1.76;77.51
64388;BME280;50709;52.648;4.764;2022-12-17T05:09:26;102395.59;;;2.04;79.22
64388;BME280;50709;52.648;4.764;2022-12-17T05:12:29;102389.34;;;1.45;79.07
64388;BME280;50709;52.648;4.764;2022-12-17T05:15:13;102393.50;;;1.43;80.66
64388;BME280;50709;52.648;4.764;2022-12-17T05:18:06;102393.53;;;1.98;78.43
64388;BME280;50709;52.648;4.764;2022-12-17T05:20:50;102394.41;;;1.43;78.99
64388;BME280;50709;52.648;4.764;2022-12-17T05:23:34;102393.38;;;1.68;81.48
64388;BME280;50709;52.648;4.764;2022-12-17T05:26:20;102394.50;;;1.58;81.20
64388;BME280;50709;52.648;4.764;2022-12-17T05:29:03;102390.63;;;1.38;78.56
64388;BME280;50709;52.648;4.764;2022-12-17T05:31:48;102394.00;;;1.37;81.25
64388;BME280;50709;52.648;4.764;2022-12-17T05:34:32;102392.59;;;1.02;79.17
64388;BME280;50709;52.648;4.764;2022-12-17T05:37:16;102393.19;;;1.25;81.26
64388;BME280;50709;52.648;4.764;2022-12-17T05:39:59;102399.75;;;1.33;80.11
64388;BME280;50709;52.648;4.764;2022-12-17T05:42:52;102408.13;;;1.04;80.81
64388;BME280;50709;52.648;4.764;2022-12-17T05:45:37;102408.13;;;1.04;80.47
64388;BME280;50709;52.648;4.764;2022-12-17T05:48:20;102400.94;;;1.38;81.52
64388;BME280;50709;52.648;4.764;2022-12-17T05:51:04;102403.78;;;1.29;79.65
64388;BME280;50709;52.648;4.764;2022-12-17T05:53:48;102413.13;;;1.41;80.45
64388;BME280;50709;52.648;4.764;2022-12-17T05:56:31;102410.44;;;1.26;79.45
64388;BME280;50709;52.648;4.764;2022-12-17T05:59:15;102416.06;;;1.60;79.81
64388;BME280;50709;52.648;4.764;2022-12-17T06:01:59;102413.50;;;1.33;79.22
64388;BME280;50709;52.648;4.764;2022-12-17T06:04:43;102411.88;;;1.09;80.16
64388;BME280;50709;52.648;4.764;2022-12-17T06:07:26;102410.53;;;1.81;81.43
64388;BME280;50709;52.648;4.764;2022-12-17T06:10:10;102411.41;;;1.14;80.61
64388;BME280;50709;52.648;4.764;2022-12-17T06:12:54;102411.63;;;1.17;80.99
64388;BME280;50709;52.648;4.764;2022-12-17T06:15:39;102413.59;;;1.48;81.07
64388;BME280;50709;52.648;4.764;2022-12-17T06:18:22;102410.03;;;1.33;79.99
64388;BME280;50709;52.648;4.764;2022-12-17T06:21:06;102410.72;;;1.30;81.15
64388;BME280;50709;52.648;4.764;2022-12-17T06:23:50;102419.41;;;1.06;80.47
64388;BME280;50709;52.648;4.764;2022-12-17T06:26:33;102414.28;;;1.06;78.36
64388;BME280;50709;52.648;4.764;2022-12-17T06:29:17;102424.59;;;1.19;80.74
64388;BME280;50709;52.648;4.764;2022-12-17T06:32:01;102422.63;;;1.42;80.53
64388;BME280;50709;52.648;4.764;2022-12-17T06:34:45;102419.50;;;1.07;78.90
64388;BME280;50709;52.648;4.764;2022-12-17T06:37:29;102421.50;;;1.11;80.69
64388;BME280;50709;52.648;4.764;2022-12-17T06:40:13;102429.38;;;1.01;80.29
64388;BME280;50709;52.648;4.764;2022-12-17T06:42:58;102441.63;;;1.57;80.59
64388;BME280;50709;52.648;4.764;2022-12-17T06:45:42;102442.09;;;2.33;79.79
64388;BME280;50709;52.648;4.764;2022-12-17T06:48:26;102437.16;;;1.55;78.23
64388;BME280;50709;52.648;4.764;2022-12-17T06:51:10;102440.75;;;1.43;77.27
64388;BME280;50709;52.648;4.764;2022-12-17T06:53:54;102438.81;;;1.94;81.03
64388;BME280;50709;52.648;4.764;2022-12-17T06:56:38;102443.00;;;1.79;79.58
64388;BME280;50709;52.648;4.764;2022-12-17T06:59:22;102438.41;;;2.15;81.10
64388;BME280;50709;52.648;4.764;2022-12-17T07:02:17;102438.88;;;1.67;79.05
64388;BME280;50709;52.648;4.764;2022-12-17T07:05:00;102432.13;;;1.56;79.30
64388;BME280;50709;52.648;4.764;2022-12-17T07:07:45;102451.22;;;1.33;79.03
64388;BME280;50709;52.648;4.764;2022-12-17T07:10:28;102450.75;;;1.52;79.59
64388;BME280;50709;52.648;4.764;2022-12-17T07:13:12;102441.63;;;1.44;79.88
64388;BME280;50709;52.648;4.764;2022-12-17T07:15:56;102442.03;;;1.50;80.59
64388;BME280;50709;52.648;4.764;2022-12-17T07:18:40;102434.69;;;1.29;80.56
64388;BME280;50709;52.648;4.764;2022-12-17T07:21:24;102449.56;;;0.95;79.79
64388;BME280;50709;52.648;4.764;2022-12-17T07:24:08;102446.88;;;1.59;81.18
64388;BME280;50709;52.648;4.764;2022-12-17T07:26:52;102456.69;;;1.64;80.61
64388;BME280;50709;52.648;4.764;2022-12-17T07:29:36;102457.66;;;1.40;79.40
64388;BME280;50709;52.648;4.764;2022-12-17T07:32:20;102456.47;;;1.34;80.07
64388;BME280;50709;52.648;4.764;2022-12-17T07:35:04;102462.00;;;1.14;80.70
64388;BME280;50709;52.648;4.764;2022-12-17T07:37:48;102458.94;;;1.33;80.19
64388;BME280;50709;52.648;4.764;2022-12-17T07:40:32;102469.09;;;1.70;81.56
64388;BME280;50709;52.648;4.764;2022-12-17T07:43:16;102475.19;;;1.32;80.21
64388;BME280;50709;52.648;4.764;2022-12-17T07:46:00;102469.78;;;1.54;80.84
64388;BME280;50709;52.648;4.764;2022-12-17T07:48:44;102480.53;;;1.62;81.01
64388;BME280;50709;52.648;4.764;2022-12-17T07:51:27;102469.53;;;1.38;79.78
64388;BME280;50709;52.648;4.764;2022-12-17T07:54:11;102476.59;;;1.80;82.99
64388;BME280;50709;52.648;4.764;2022-12-17T07:56:55;102471.31;;;1.25;82.37
64388;BME280;50709;52.648;4.764;2022-12-17T07:59:39;102476.44;;;1.25;80.59
64388;BME280;50709;52.648;4.764;2022-12-17T08:02:23;102475.34;;;1.08;82.12
64388;BME280;50709;52.648;4.764;2022-12-17T08:05:07;102484.69;;;1.33;81.98
64388;BME280;50709;52.648;4.764;2022-12-17T08:07:50;102477.78;;;1.45;81.41
64388;BME280;50709;52.648;4.764;2022-12-17T08:10:39;102488.28;;;1.35;80.87
64388;BME280;50709;52.648;4.764;2022-12-17T08:13:23;102485.38;;;1.30;80.01
64388;BME280;50709;52.648;4.764;2022-12-17T08:16:06;102484.31;;;1.67;81.01
64388;BME280;50709;52.648;4.764;2022-12-17T08:18:50;102495.03;;;2.00;82.14
64388;BME280;50709;52.648;4.764;2022-12-17T08:21:34;102497.88;;;2.18;81.29
64388;BME280;50709;52.648;4.764;2022-12-17T08:24:18;102500.22;;;2.42;81.25
64388;BME280;50709;52.648;4.764;2022-12-17T08:27:02;102502.72;;;2.27;80.59
64388;BME280;50709;52.648;4.764;2022-12-17T08:29:46;102517.06;;;2.37;80.69
64388;BME280;50709;52.648;4.764;2022-12-17T08:32:30;102524.66;;;2.07;79.83
64388;BME280;50709;52.648;4.764;2022-12-17T08:35:14;102525.34;;;1.77;78.65
64388;BME280;50709;52.648;4.764;2022-12-17T08:38:02;102533.06;;;2.31;81.03
64388;BME280;50709;52.648;4.764;2022-12-17T08:40:46;102525.72;;;1.97;79.32
64388;BME280;50709;52.648;4.764;2022-12-17T08:43:30;102528.63;;;2.15;81.10
64388;BME280;50709;52.648;4.764;2022-12-17T08:46:13;102525.44;;;1.92;79.38
64388;BME280;50709;52.648;4.764;2022-12-17T08:48:57;102527.28;;;2.35;80.49
64388;BME280;50709;52.648;4.764;2022-12-17T08:51:41;102528.03;;;2.89;80.00
64388;BME280;50709;52.648;4.764;2022-12-17T08:54:25;102532.16;;;2.17;77.59
64388;BME280;50709;52.648;4.764;2022-12-17T08:57:09;102530.34;;;2.43;77.84
64388;BME280;50709;52.648;4.764;2022-12-17T08:59:53;102521.47;;;2.11;78.50
64388;BME280;50709;52.648;4.764;2022-12-17T09:02:37;102517.47;;;2.29;77.96
64388;BME280;50709;52.648;4.764;2022-12-17T09:05:28;102524.25;;;3.27;78.74
64388;BME280;50709;52.648;4.764;2022-12-17T09:08:12;102521.47;;;2.94;78.37
64388;BME280;50709;52.648;4.764;2022-12-17T09:10:58;102522.22;;;2.78;76.71
64388;BME280;50709;52.648;4.764;2022-12-17T09:13:41;102530.09;;;2.95;77.73
64388;BME280;50709;52.648;4.764;2022-12-17T09:16:25;102529.69;;;2.89;78.39
64388;BME280;50709;52.648;4.764;2022-12-17T09:19:09;102530.25;;;2.98;77.92
64388;BME280;50709;52.648;4.764;2022-12-17T09:21:53;102537.66;;;2.92;76.77
64388;BME280;50709;52.648;4.764;2022-12-17T09:24:37;102549.41;;;3.01;78.95
64388;BME280;50709;52.648;4.764;2022-12-17T09:27:21;102548.81;;;2.77;77.66
64388;BME280;50709;52.648;4.764;2022-12-17T09:30:05;102547.00;;;2.76;77.94
64388;BME280;50709;52.648;4.764;2022-12-17T09:32:49;102551.00;;;2.99;78.57
64388;BME280;50709;52.648;4.764;2022-12-17T09:35:33;102566.97;;;3.22;77.17
64388;BME280;50709;52.648;4.764;2022-12-17T09:38:19;102574.59;;;3.49;77.93
64388;BME280;50709;52.648;4.764;2022-12-17T09:41:46;102573.88;;;2.93;77.15
64388;BME280;50709;52.648;4.764;2022-12-17T09:44:18;102577.56;;;3.55;78.75
64388;BME280;50709;52.648;4.764;2022-12-17T09:47:11;102575.84;;;2.97;76.41
64388;BME280;50709;52.648;4.764;2022-12-17T09:49:59;102577.69;;;3.28;77.44
64388;BME280;50709;52.648;4.764;2022-12-17T09:52:43;102575.66;;;3.23;74.89
64388;BME280;50709;52.648;4.764;2022-12-17T09:55:49;102579.13;;;3.98;78.01
64388;BME280;50709;52.648;4.764;2022-12-17T09:58:33;102580.75;;;3.51;77.43
64388;BME280;50709;52.648;4.764;2022-12-17T10:01:38;102574.25;;;3.87;78.55
64388;BME280;50709;52.648;4.764;2022-12-17T10:07:13;102569.78;;;4.00;76.05
64388;BME280;50709;52.648;4.764;2022-12-17T10:10:00;102570.50;;;3.97;75.42
64388;BME280;50709;52.648;4.764;2022-12-17T10:12:45;102578.53;;;3.57;74.73
64388;BME280;50709;52.648;4.764;2022-12-17T10:15:28;102574.44;;;3.76;75.92
64388;BME280;50709;52.648;4.764;2022-12-17T10:18:12;102579.31;;;3.71;75.25
64388;BME280;50709;52.648;4.764;2022-12-17T10:20:58;102577.38;;;3.97;76.11
64388;BME280;50709;52.648;4.764;2022-12-17T10:23:43;102580.56;;;3.78;76.31
64388;BME280;50709;52.648;4.764;2022-12-17T10:26:28;102573.03;;;4.27;77.07
64388;BME280;50709;52.648;4.764;2022-12-17T10:29:16;102578.19;;;3.51;75.58
64388;BME280;50709;52.648;4.764;2022-12-17T10:32:08;102572.00;;;3.79;77.37
64388;BME280;50709;52.648;4.764;2022-12-17T10:34:52;102563.09;;;3.88;76.37
64388;BME280;50709;52.648;4.764;2022-12-17T10:37:46;102567.59;;;3.18;72.96
64388;BME280;50709;52.648;4.764;2022-12-17T10:40:32;102562.03;;;4.00;75.22
64388;BME280;50709;52.648;4.764;2022-12-17T10:43:29;102560.72;;;3.62;74.05
64388;BME280;50709;52.648;4.764;2022-12-17T10:46:29;102564.91;;;4.21;75.40
64388;BME280;50709;52.648;4.764;2022-12-17T10:49:15;102567.25;;;4.16;73.55
64388;BME280;50709;52.648;4.764;2022-12-17T10:52:00;102563.16;;;4.20;74.01
64388;BME280;50709;52.648;4.764;2022-12-17T10:55:00;102560.03;;;4.11;72.31
64388;BME280;50709;52.648;4.764;2022-12-17T10:57:46;102556.78;;;4.30;74.27
64388;BME280;50709;52.648;4.764;2022-12-17T11:00:35;102569.25;;;4.68;73.57
64388;BME280;50709;52.648;4.764;2022-12-17T11:06:16;102573.84;;;4.91;72.89
64388;BME280;50709;52.648;4.764;2022-12-17T11:09:01;102570.50;;;4.60;72.10
64388;BME280;50709;52.648;4.764;2022-12-17T11:11:45;102568.91;;;5.28;74.61
64388;BME280;50709;52.648;4.764;2022-12-17T11:14:31;102575.41;;;5.20;73.67
64388;BME280;50709;52.648;4.764;2022-12-17T11:17:17;102567.28;;;5.30;73.88
64388;BME280;50709;52.648;4.764;2022-12-17T11:20:04;102567.22;;;5.63;72.05
64388;BME280;50709;52.648;4.764;2022-12-17T11:22:51;102567.31;;;4.81;69.07
64388;BME280;50709;52.648;4.764;2022-12-17T11:25:43;102555.47;;;5.88;68.77
64388;BME280;50709;52.648;4.764;2022-12-17T11:28:33;102563.41;;;5.05;69.56
64388;BME280;50709;52.648;4.764;2022-12-17T11:31:41;102574.50;;;5.19;70.68
64388;BME280;50709;52.648;4.764;2022-12-17T11:34:38;102568.53;;;4.87;71.23
64388;BME280;50709;52.648;4.764;2022-12-17T11:37:37;102567.59;;;5.36;68.54
64388;BME280;50709;52.648;4.764;2022-12-17T11:40:32;102559.63;;;5.84;69.70
64388;BME280;50709;52.648;4.764;2022-12-17T11:57:59;102552.44;;;5.44;71.31
64388;BME280;50709;52.648;4.764;2022-12-17T12:09:51;102557.88;;;6.01;68.86
64388;BME280;50709;52.648;4.764;2022-12-17T12:15:45;102565.28;;;6.30;65.78
64388;BME280;50709;52.648;4.764;2022-12-17T12:24:20;102567.66;;;5.38;68.43
64388;BME280;50709;52.648;4.764;2022-12-17T12:27:13;102563.63;;;6.50;68.37
64388;BME280;50709;52.648;4.764;2022-12-17T12:30:16;102563.72;;;6.90;69.98
64388;BME280;50709;52.648;4.764;2022-12-17T12:33:04;102559.28;;;6.88;69.65
64388;BME280;50709;52.648;4.764;2022-12-17T12:35:50;102561.50;;;6.41;69.66
64388;BME280;50709;52.648;4.764;2022-12-17T12:38:41;102555.72;;;6.11;71.64
64388;BME280;50709;52.648;4.764;2022-12-17T12:47:02;102570.06;;;5.86;70.82
64388;BME280;50709;52.648;4.764;2022-12-17T12:50:00;102565.38;;;5.79;68.78
64388;BME280;50709;52.648;4.764;2022-12-17T12:52:48;102571.41;;;5.78;66.88
64388;BME280;50709;52.648;4.764;2022-12-17T12:55:36;102573.75;;;5.73;69.77
64388;BME280;50709;52.648;4.764;2022-12-17T12:58:24;102567.94;;;5.61;69.50
64388;BME280;50709;52.648;4.764;2022-12-17T13:01:08;102557.59;;;5.61;69.57
64388;BME280;50709;52.648;4.764;2022-12-17T13:03:54;102576.91;;;6.02;71.39
64388;BME280;50709;52.648;4.764;2022-12-17T13:14:29;102560.47;;;6.57;67.48
64388;BME280;50709;52.648;4.764;2022-12-17T13:17:39;102560.16;;;6.49;67.79
64388;BME280;50709;52.648;4.764;2022-12-17T13:19:44;102546.09;;;5.73;68.40
64388;BME280;50709;52.648;4.764;2022-12-17T13:24:36;102552.13;;;5.72;69.90
64388;BME280;50709;52.648;4.764;2022-12-17T13:27:02;102546.88;;;5.71;68.04
64388;BME280;50709;52.648;4.764;2022-12-17T13:34:27;102552.41;;;5.61;68.84
64388;BME280;50709;52.648;4.764;2022-12-17T13:37:05;102545.16;;;5.89;67.57
64388;BME280;50709;52.648;4.764;2022-12-17T13:39:35;102557.16;;;5.35;67.77
64388;BME280;50709;52.648;4.764;2022-12-17T13:42:03;102554.13;;;6.13;68.57
64388;BME280;50709;52.648;4.764;2022-12-17T13:44:37;102552.41;;;6.51;66.11
64388;BME280;50709;52.648;4.764;2022-12-17T13:47:04;102549.81;;;5.79;66.51
64388;BME280;50709;52.648;4.764;2022-12-17T13:49:29;102552.66;;;6.19;67.50
64388;BME280;50709;52.648;4.764;2022-12-17T13:52:02;102544.28;;;5.36;67.28
64388;BME280;50709;52.648;4.764;2022-12-17T13:54:28;102546.00;;;6.43;69.72
64388;BME280;50709;52.648;4.764;2022-12-17T13:56:53;102543.34;;;6.23;68.60
64388;BME280;50709;52.648;4.764;2022-12-17T13:59:20;102550.59;;;5.94;69.65
64388;BME280;50709;52.648;4.764;2022-12-17T14:01:47;102557.78;;;5.82;69.39
64388;BME280;50709;52.648;4.764;2022-12-17T14:04:19;102560.53;;;6.03;70.53
64388;BME280;50709;52.648;4.764;2022-12-17T14:06:45;102564.78;;;5.66;67.21
64388;BME280;50709;52.648;4.764;2022-12-17T14:09:13;102568.66;;;5.40;69.22
64388;BME280;50709;52.648;4.764;2022-12-17T14:11:41;102564.63;;;5.81;69.56
64388;BME280;50709;52.648;4.764;2022-12-17T14:16:53;102570.09;;;5.69;68.37
64388;BME280;50709;52.648;4.764;2022-12-17T14:19:19;102573.94;;;5.60;68.43
64388;BME280;50709;52.648;4.764;2022-12-17T14:21:44;102582.84;;;5.65;68.80
64388;BME280;50709;52.648;4.764;2022-12-17T14:24:11;102581.28;;;5.34;68.66
64388;BME280;50709;52.648;4.764;2022-12-17T14:26:46;102582.97;;;5.50;68.19
64388;BME280;50709;52.648;4.764;2022-12-17T14:29:11;102585.75;;;5.20;69.20
64388;BME280;50709;52.648;4.764;2022-12-17T14:31:37;102575.84;;;5.46;68.61
64388;BME280;50709;52.648;4.764;2022-12-17T14:36:31;102577.00;;;5.87;69.61
64388;BME280;50709;52.648;4.764;2022-12-17T14:38:58;102591.97;;;5.75;67.59
64388;BME280;50709;52.648;4.764;2022-12-17T14:41:25;102586.03;;;6.30;68.64
64388;BME280;50709;52.648;4.764;2022-12-17T14:44:19;102590.13;;;6.43;71.50
64388;BME280;50709;52.648;4.764;2022-12-17T14:46:46;102597.69;;;6.20;68.53
64388;BME280;50709;52.648;4.764;2022-12-17T14:49:16;102600.63;;;6.46;64.50
64388;BME280;50709;52.648;4.764;2022-12-17T14:51:42;102609.72;;;5.16;65.16
64388;BME280;50709;52.648;4.764;2022-12-17T14:54:20;102603.41;;;5.96;70.14
64388;BME280;50709;52.648;4.764;2022-12-17T14:56:52;102613.19;;;5.33;68.49
64388;BME280;50709;52.648;4.764;2022-12-17T14:59:22;102601.72;;;5.62;69.78
64388;BME280;50709;52.648;4.764;2022-12-17T15:01:48;102608.09;;;5.18;69.70
64388;BME280;50709;52.648;4.764;2022-12-17T15:04:14;102616.28;;;5.77;69.60
64388;BME280;50709;52.648;4.764;2022-12-17T15:06:40;102603.69;;;5.50;71.31
64388;BME280;50709;52.648;4.764;2022-12-17T15:09:05;102617.69;;;6.40;70.02
64388;BME280;50709;52.648;4.764;2022-12-17T15:11:30;102620.97;;;5.16;69.06
64388;BME280;50709;52.648;4.764;2022-12-17T15:13:56;102624.34;;;5.48;70.05
64388;BME280;50709;52.648;4.764;2022-12-17T15:16:21;102641.53;;;5.30;69.86
64388;BME280;50709;52.648;4.764;2022-12-17T15:18:46;102637.56;;;5.03;68.29
64388;BME280;50709;52.648;4.764;2022-12-17T15:21:11;102642.72;;;4.55;69.17
64388;BME280;50709;52.648;4.764;2022-12-17T15:23:38;102643.00;;;5.76;72.38
64388;BME280;50709;52.648;4.764;2022-12-17T15:26:04;102645.09;;;5.48;70.31
64388;BME280;50709;52.648;4.764;2022-12-17T15:28:30;102649.69;;;5.54;68.99
64388;BME280;50709;52.648;4.764;2022-12-17T15:30:55;102642.78;;;5.54;69.01
64388;BME280;50709;52.648;4.764;2022-12-17T15:33:21;102648.72;;;5.19;70.13
64388;BME280;50709;52.648;4.764;2022-12-17T15:35:46;102647.91;;;5.36;70.64
64388;BME280;50709;52.648;4.764;2022-12-17T15:38:11;102652.94;;;5.50;73.31